sensor_id;sensor_type;location;lat;lon;timestamp;temperature;humidity
29453;DHT22;16424;50.956;5.320;2023-05-07T00:01:42;15.90;99.90
29453;DHT22;16424;50.956;5.320;2023-05-07T00:04:08;15.90;99.90
29453;DHT22;16424;50.956;5.320;2023-05-07T00:06:33;15.90;99.90
29453;DHT22;16424;50.956;5.320;2023-05-07T00:08:59;15.90;99.90
29453;DHT22;16424;50.956;5.320;2023-05-07T00:11:27;15.90;99.90
29453;DHT22;16424;50.956;5.320;2023-05-07T00:13:52;16.00;99.90
29453;DHT22;16424;50.956;5.320;2023-05-07T00:16:18;16.00;99.90
29453;DHT22;16424;50.956;5.320;2023-05-07T00:18:44;16.00;99.90
29453;DHT22;16424;50.956;5.320;2023-05-07T00:21:10;16.00;99.90
29453;DHT22;16424;50.956;5.320;2023-05-07T00:23:36;16.00;99.90
29453;DHT22;16424;50.956;5.320;2023-05-07T00:26:02;16.00;99.90
29453;DHT22;16424;50.956;5.320;2023-05-07T00:28:28;16.00;99.90
29453;DHT22;16424;50.956;5.320;2023-05-07T00:30:53;16.00;99.90
29453;DHT22;16424;50.956;5.320;2023-05-07T00:33:19;16.00;99.90
29453;DHT22;16424;50.956;5.320;2023-05-07T00:35:46;16.00;99.90
29453;DHT22;16424;50.956;5.320;2023-05-07T00:38:12;16.00;99.90
29453;DHT22;16424;50.956;5.320;2023-05-07T00:40:37;16.00;99.90
29453;DHT22;16424;50.956;5.320;2023-05-07T00:43:03;16.00;99.90
29453;DHT22;16424;50.956;5.320;2023-05-07T00:45:29;16.00;99.90
29453;DHT22;16424;50.956;5.320;2023-05-07T00:48:00;16.00;99.90
29453;DHT22;16424;50.956;5.320;2023-05-07T00:50:26;15.90;99.90
29453;DHT22;16424;50.956;5.320;2023-05-07T00:52:53;16.00;99.90
29453;DHT22;16424;50.956;5.320;2023-05-07T00:55:19;15.90;99.90
29453;DHT22;16424;50.956;5.320;2023-05-07T00:57:46;15.90;99.90
29453;DHT22;16424;50.956;5.320;2023-05-07T01:00:12;15.90;99.90
29453;DHT22;16424;50.956;5.320;2023-05-07T01:02:38;15.90;99.90
29453;DHT22;16424;50.956;5.320;2023-05-07T01:05:06;15.80;99.90
29453;DHT22;16424;50.956;5.320;2023-05-07T01:07:33;15.80;99.90
29453;DHT22;16424;50.956;5.320;2023-05-07T01:10:00;16.00;99.90
29453;DHT22;16424;50.956;5.320;2023-05-07T01:12:27;16.10;99.90
29453;DHT22;16424;50.956;5.320;2023-05-07T01:14:53;16.20;99.90
29453;DHT22;16424;50.956;5.320;2023-05-07T01:17:19;16.10;99.90
29453;DHT22;16424;50.956;5.320;2023-05-07T01:19:45;16.10;99.90
29453;DHT22;16424;50.956;5.320;2023-05-07T01:22:15;16.20;99.90
29453;DHT22;16424;50.956;5.320;2023-05-07T01:24:42;16.30;99.90
29453;DHT22;16424;50.956;5.320;2023-05-07T01:27:07;16.40;99.90
29453;DHT22;16424;50.956;5.320;2023-05-07T01:29:33;16.40;99.90
29453;DHT22;16424;50.956;5.320;2023-05-07T01:32:01;16.30;99.90
29453;DHT22;16424;50.956;5.320;2023-05-07T01:34:29;16.30;99.90
29453;DHT22;16424;50.956;5.320;2023-05-07T01:36:55;16.30;99.90
29453;DHT22;16424;50.956;5.320;2023-05-07T01:39:27;16.30;99.90
29453;DHT22;16424;50.956;5.320;2023-05-07T01:41:56;16.10;99.90
29453;DHT22;16424;50.956;5.320;2023-05-07T01:44:22;16.10;99.90
29453;DHT22;16424;50.956;5.320;2023-05-07T01:46:49;16.00;99.90
29453;DHT22;16424;50.956;5.320;2023-05-07T01:49:16;16.00;99.90
29453;DHT22;16424;50.956;5.320;2023-05-07T01:51:43;15.90;99.90
29453;DHT22;16424;50.956;5.320;2023-05-07T01:54:09;15.90;99.90
29453;DHT22;16424;50.956;5.320;2023-05-07T01:56:34;15.90;99.90
29453;DHT22;16424;50.956;5.320;2023-05-07T01:59:00;16.00;99.90
29453;DHT22;16424;50.956;5.320;2023-05-07T02:01:27;16.00;99.90
29453;DHT22;16424;50.956;5.320;2023-05-07T02:03:53;16.00;99.90
29453;DHT22;16424;50.956;5.320;2023-05-07T02:06:19;16.00;99.90
29453;DHT22;16424;50.956;5.320;2023-05-07T02:08:45;16.00;99.90
29453;DHT22;16424;50.956;5.320;2023-05-07T02:11:11;16.10;99.90
29453;DHT22;16424;50.956;5.320;2023-05-07T02:13:37;16.00;99.90
29453;DHT22;16424;50.956;5.320;2023-05-07T02:16:03;16.00;99.90
29453;DHT22;16424;50.956;5.320;2023-05-07T02:18:29;15.90;99.90
29453;DHT22;16424;50.956;5.320;2023-05-07T02:20:55;15.90;99.90
29453;DHT22;16424;50.956;5.320;2023-05-07T02:23:20;15.80;99.90
29453;DHT22;16424;50.956;5.320;2023-05-07T02:25:46;15.70;99.90
29453;DHT22;16424;50.956;5.320;2023-05-07T02:28:12;15.60;99.90
29453;DHT22;16424;50.956;5.320;2023-05-07T02:30:38;15.60;99.90
29453;DHT22;16424;50.956;5.320;2023-05-07T02:33:04;15.60;99.90
29453;DHT22;16424;50.956;5.320;2023-05-07T02:35:30;15.70;99.90
29453;DHT22;16424;50.956;5.320;2023-05-07T02:37:55;15.90;99.90
29453;DHT22;16424;50.956;5.320;2023-05-07T02:40:21;15.90;99.90
29453;DHT22;16424;50.956;5.320;2023-05-07T02:42:47;15.80;99.90
29453;DHT22;16424;50.956;5.320;2023-05-07T02:45:12;16.00;99.90
29453;DHT22;16424;50.956;5.320;2023-05-07T02:47:39;16.10;99.90
29453;DHT22;16424;50.956;5.320;2023-05-07T02:50:06;16.10;99.90
29453;DHT22;16424;50.956;5.320;2023-05-07T02:52:31;16.00;99.90
29453;DHT22;16424;50.956;5.320;2023-05-07T02:54:57;16.00;99.90
29453;DHT22;16424;50.956;5.320;2023-05-07T02:57:22;16.00;99.90
29453;DHT22;16424;50.956;5.320;2023-05-07T02:59:48;16.00;99.90
29453;DHT22;16424;50.956;5.320;2023-05-07T03:02:14;15.90;99.90
29453;DHT22;16424;50.956;5.320;2023-05-07T03:04:40;15.80;99.90
29453;DHT22;16424;50.956;5.320;2023-05-07T03:07:05;15.70;99.90
29453;DHT22;16424;50.956;5.320;2023-05-07T03:09:31;15.70;99.90
29453;DHT22;16424;50.956;5.320;2023-05-07T03:11:57;15.90;99.90
29453;DHT22;16424;50.956;5.320;2023-05-07T03:14:23;15.90;99.90
29453;DHT22;16424;50.956;5.320;2023-05-07T03:16:49;15.80;99.90
29453;DHT22;16424;50.956;5.320;2023-05-07T03:19:15;15.70;99.90
29453;DHT22;16424;50.956;5.320;2023-05-07T03:21:41;15.60;99.90
29453;DHT22;16424;50.956;5.320;2023-05-07T03:24:06;15.60;99.90
29453;DHT22;16424;50.956;5.320;2023-05-07T03:26:32;15.60;99.90
29453;DHT22;16424;50.956;5.320;2023-05-07T03:28:58;15.50;99.90
29453;DHT22;16424;50.956;5.320;2023-05-07T03:31:23;15.60;99.90
29453;DHT22;16424;50.956;5.320;2023-05-07T03:33:54;15.70;99.90
29453;DHT22;16424;50.956;5.320;2023-05-07T03:36:20;15.80;99.90
29453;DHT22;16424;50.956;5.320;2023-05-07T03:38:46;15.80;99.90
29453;DHT22;16424;50.956;5.320;2023-05-07T03:41:12;15.80;99.90
29453;DHT22;16424;50.956;5.320;2023-05-07T03:43:37;15.80;99.90
29453;DHT22;16424;50.956;5.320;2023-05-07T03:46:03;15.80;99.90
29453;DHT22;16424;50.956;5.320;2023-05-07T03:48:29;15.70;99.90
29453;DHT22;16424;50.956;5.320;2023-05-07T03:50:55;15.60;99.90
29453;DHT22;16424;50.956;5.320;2023-05-07T03:53:21;15.70;99.90
29453;DHT22;16424;50.956;5.320;2023-05-07T03:55:46;15.80;99.90
29453;DHT22;16424;50.956;5.320;2023-05-07T03:58:12;15.90;99.90
29453;DHT22;16424;50.956;5.320;2023-05-07T04:00:38;16.00;99.90
29453;DHT22;16424;50.956;5.320;2023-05-07T04:03:05;16.00;99.90
29453;DHT22;16424;50.956;5.320;2023-05-07T04:05:31;16.00;99.90
29453;DHT22;16424;50.956;5.320;2023-05-07T04:08:00;15.90;99.90
29453;DHT22;16424;50.956;5.320;2023-05-07T04:10:26;16.00;99.90
29453;DHT22;16424;50.956;5.320;2023-05-07T04:12:53;16.00;99.90
29453;DHT22;16424;50.956;5.320;2023-05-07T04:15:19;16.10;99.90
29453;DHT22;16424;50.956;5.320;2023-05-07T04:17:45;16.10;99.90
29453;DHT22;16424;50.956;5.320;2023-05-07T04:20:14;16.20;99.90
29453;DHT22;16424;50.956;5.320;2023-05-07T04:22:40;16.20;99.90
29453;DHT22;16424;50.956;5.320;2023-05-07T04:25:07;16.10;99.90
29453;DHT22;16424;50.956;5.320;2023-05-07T04:27:34;16.10;99.90
29453;DHT22;16424;50.956;5.320;2023-05-07T04:30:01;16.00;99.90
29453;DHT22;16424;50.956;5.320;2023-05-07T04:32:27;15.90;99.90
29453;DHT22;16424;50.956;5.320;2023-05-07T04:34:54;15.80;99.90
29453;DHT22;16424;50.956;5.320;2023-05-07T04:37:21;15.80;99.90
29453;DHT22;16424;50.956;5.320;2023-05-07T04:39:47;15.80;99.90
29453;DHT22;16424;50.956;5.320;2023-05-07T04:42:16;15.80;99.90
29453;DHT22;16424;50.956;5.320;2023-05-07T04:44:42;15.70;99.90
29453;DHT22;16424;50.956;5.320;2023-05-07T04:47:08;15.70;99.90
29453;DHT22;16424;50.956;5.320;2023-05-07T04:49:34;15.70;99.90
29453;DHT22;16424;50.956;5.320;2023-05-07T04:51:59;15.80;99.90
29453;DHT22;16424;50.956;5.320;2023-05-07T04:54:25;15.80;99.90
29453;DHT22;16424;50.956;5.320;2023-05-07T04:56:51;15.80;99.90
29453;DHT22;16424;50.956;5.320;2023-05-07T04:59:17;15.80;99.90
29453;DHT22;16424;50.956;5.320;2023-05-07T05:01:43;15.80;99.90
29453;DHT22;16424;50.956;5.320;2023-05-07T05:04:09;15.70;99.90
29453;DHT22;16424;50.956;5.320;2023-05-07T05:06:35;15.70;99.90
29453;DHT22;16424;50.956;5.320;2023-05-07T05:09:01;15.70;99.90
29453;DHT22;16424;50.956;5.320;2023-05-07T05:11:26;15.70;99.90
29453;DHT22;16424;50.956;5.320;2023-05-07T05:13:52;15.80;99.90
29453;DHT22;16424;50.956;5.320;2023-05-07T05:16:18;15.90;99.90
29453;DHT22;16424;50.956;5.320;2023-05-07T05:18:43;16.00;99.90
29453;DHT22;16424;50.956;5.320;2023-05-07T05:21:09;16.20;99.90
29453;DHT22;16424;50.956;5.320;2023-05-07T05:23:35;16.40;99.90
29453;DHT22;16424;50.956;5.320;2023-05-07T05:26:00;16.50;99.90
29453;DHT22;16424;50.956;5.320;2023-05-07T05:28:26;16.70;99.90
29453;DHT22;16424;50.956;5.320;2023-05-07T05:30:53;16.80;99.90
29453;DHT22;16424;50.956;5.320;2023-05-07T05:33:18;17.00;99.90
29453;DHT22;16424;50.956;5.320;2023-05-07T05:35:44;16.90;99.90
29453;DHT22;16424;50.956;5.320;2023-05-07T05:38:10;16.80;99.90
29453;DHT22;16424;50.956;5.320;2023-05-07T05:40:36;16.80;99.90
29453;DHT22;16424;50.956;5.320;2023-05-07T05:43:01;16.80;99.90
29453;DHT22;16424;50.956;5.320;2023-05-07T05:45:27;17.00;99.90
29453;DHT22;16424;50.956;5.320;2023-05-07T05:47:53;17.30;99.90
29453;DHT22;16424;50.956;5.320;2023-05-07T05:50:18;17.60;99.90
29453;DHT22;16424;50.956;5.320;2023-05-07T05:52:44;17.80;99.90
29453;DHT22;16424;50.956;5.320;2023-05-07T05:55:10;17.60;99.90
29453;DHT22;16424;50.956;5.320;2023-05-07T05:57:36;17.60;99.90
29453;DHT22;16424;50.956;5.320;2023-05-07T06:00:02;18.00;99.90
29453;DHT22;16424;50.956;5.320;2023-05-07T06:02:28;18.10;99.90
29453;DHT22;16424;50.956;5.320;2023-05-07T06:04:53;18.10;99.90
29453;DHT22;16424;50.956;5.320;2023-05-07T06:07:19;18.20;99.90
29453;DHT22;16424;50.956;5.320;2023-05-07T06:09:45;18.40;99.90
29453;DHT22;16424;50.956;5.320;2023-05-07T06:12:11;18.50;99.90
29453;DHT22;16424;50.956;5.320;2023-05-07T06:14:38;18.40;99.90
29453;DHT22;16424;50.956;5.320;2023-05-07T06:17:04;18.60;99.90
29453;DHT22;16424;50.956;5.320;2023-05-07T06:19:29;18.50;99.90
29453;DHT22;16424;50.956;5.320;2023-05-07T06:21:55;18.20;99.90
29453;DHT22;16424;50.956;5.320;2023-05-07T06:24:24;18.20;99.90
29453;DHT22;16424;50.956;5.320;2023-05-07T06:26:50;18.30;99.90
29453;DHT22;16424;50.956;5.320;2023-05-07T06:29:15;18.30;99.90
29453;DHT22;16424;50.956;5.320;2023-05-07T06:31:41;18.20;99.90
29453;DHT22;16424;50.956;5.320;2023-05-07T06:34:07;18.30;99.90
29453;DHT22;16424;50.956;5.320;2023-05-07T06:36:33;18.70;99.90
29453;DHT22;16424;50.956;5.320;2023-05-07T06:38:59;18.70;99.90
29453;DHT22;16424;50.956;5.320;2023-05-07T06:41:25;18.70;99.90
29453;DHT22;16424;50.956;5.320;2023-05-07T06:43:51;18.90;99.90
29453;DHT22;16424;50.956;5.320;2023-05-07T06:46:17;19.00;99.90
29453;DHT22;16424;50.956;5.320;2023-05-07T06:48:42;18.90;99.90
29453;DHT22;16424;50.956;5.320;2023-05-07T06:51:08;19.00;99.90
29453;DHT22;16424;50.956;5.320;2023-05-07T06:53:35;19.20;99.90
29453;DHT22;16424;50.956;5.320;2023-05-07T06:56:00;19.20;99.90
29453;DHT22;16424;50.956;5.320;2023-05-07T06:58:26;19.20;99.90
29453;DHT22;16424;50.956;5.320;2023-05-07T07:00:52;19.10;99.90
29453;DHT22;16424;50.956;5.320;2023-05-07T07:03:17;18.90;99.90
29453;DHT22;16424;50.956;5.320;2023-05-07T07:05:43;19.10;99.90
29453;DHT22;16424;50.956;5.320;2023-05-07T07:08:09;19.10;99.90
29453;DHT22;16424;50.956;5.320;2023-05-07T07:10:35;19.40;99.90
29453;DHT22;16424;50.956;5.320;2023-05-07T07:13:01;19.30;99.90
29453;DHT22;16424;50.956;5.320;2023-05-07T07:15:26;19.50;99.90
29453;DHT22;16424;50.956;5.320;2023-05-07T07:17:52;19.80;99.90
29453;DHT22;16424;50.956;5.320;2023-05-07T07:20:18;20.00;99.90
29453;DHT22;16424;50.956;5.320;2023-05-07T07:22:43;20.30;99.90
29453;DHT22;16424;50.956;5.320;2023-05-07T07:25:09;20.20;99.90
29453;DHT22;16424;50.956;5.320;2023-05-07T07:27:36;20.00;99.90
29453;DHT22;16424;50.956;5.320;2023-05-07T07:30:02;20.30;99.90
29453;DHT22;16424;50.956;5.320;2023-05-07T07:32:28;20.70;99.90
29453;DHT22;16424;50.956;5.320;2023-05-07T07:34:53;20.80;99.90
29453;DHT22;16424;50.956;5.320;2023-05-07T07:37:19;20.80;99.90
29453;DHT22;16424;50.956;5.320;2023-05-07T07:39:44;20.40;99.90
29453;DHT22;16424;50.956;5.320;2023-05-07T07:42:10;20.20;99.90
29453;DHT22;16424;50.956;5.320;2023-05-07T07:44:36;19.90;99.90
29453;DHT22;16424;50.956;5.320;2023-05-07T07:47:01;19.80;99.90
29453;DHT22;16424;50.956;5.320;2023-05-07T07:49:27;20.00;99.90
29453;DHT22;16424;50.956;5.320;2023-05-07T07:51:53;20.20;99.90
29453;DHT22;16424;50.956;5.320;2023-05-07T07:54:18;20.00;99.90
29453;DHT22;16424;50.956;5.320;2023-05-07T07:56:44;20.20;99.90
29453;DHT22;16424;50.956;5.320;2023-05-07T07:59:10;20.40;99.90
29453;DHT22;16424;50.956;5.320;2023-05-07T08:01:35;20.70;99.90
29453;DHT22;16424;50.956;5.320;2023-05-07T08:04:01;20.80;99.90
29453;DHT22;16424;50.956;5.320;2023-05-07T08:06:29;21.10;99.90
29453;DHT22;16424;50.956;5.320;2023-05-07T08:08:54;21.60;99.90
29453;DHT22;16424;50.956;5.320;2023-05-07T08:11:20;21.90;99.90
29453;DHT22;16424;50.956;5.320;2023-05-07T08:13:47;22.10;99.90
29453;DHT22;16424;50.956;5.320;2023-05-07T08:16:13;22.30;99.90
29453;DHT22;16424;50.956;5.320;2023-05-07T08:18:39;22.60;99.90
29453;DHT22;16424;50.956;5.320;2023-05-07T08:21:05;23.00;99.90
29453;DHT22;16424;50.956;5.320;2023-05-07T08:23:31;23.40;99.90
29453;DHT22;16424;50.956;5.320;2023-05-07T08:25:57;23.80;99.90
29453;DHT22;16424;50.956;5.320;2023-05-07T08:28:22;24.60;99.90
29453;DHT22;16424;50.956;5.320;2023-05-07T08:30:50;24.80;99.90
29453;DHT22;16424;50.956;5.320;2023-05-07T08:33:15;24.50;99.90
29453;DHT22;16424;50.956;5.320;2023-05-07T08:35:41;24.60;99.90
29453;DHT22;16424;50.956;5.320;2023-05-07T08:38:07;24.60;99.90
29453;DHT22;16424;50.956;5.320;2023-05-07T08:40:37;24.20;99.90
29453;DHT22;16424;50.956;5.320;2023-05-07T08:43:05;23.80;99.90
29453;DHT22;16424;50.956;5.320;2023-05-07T08:45:33;23.80;99.90
29453;DHT22;16424;50.956;5.320;2023-05-07T08:48:02;23.60;99.90
29453;DHT22;16424;50.956;5.320;2023-05-07T08:50:28;23.40;99.90
29453;DHT22;16424;50.956;5.320;2023-05-07T08:52:54;23.20;99.90
29453;DHT22;16424;50.956;5.320;2023-05-07T08:55:22;23.10;99.90
29453;DHT22;16424;50.956;5.320;2023-05-07T08:57:48;23.00;99.90
29453;DHT22;16424;50.956;5.320;2023-05-07T09:00:14;22.70;99.90
29453;DHT22;16424;50.956;5.320;2023-05-07T09:02:40;23.00;99.90
29453;DHT22;16424;50.956;5.320;2023-05-07T09:05:06;23.00;99.90
29453;DHT22;16424;50.956;5.320;2023-05-07T09:07:32;23.70;99.90
29453;DHT22;16424;50.956;5.320;2023-05-07T09:09:57;24.80;99.90
29453;DHT22;16424;50.956;5.320;2023-05-07T09:12:23;25.00;99.90
29453;DHT22;16424;50.956;5.320;2023-05-07T09:14:49;25.90;99.90
29453;DHT22;16424;50.956;5.320;2023-05-07T09:17:18;25.70;99.90
29453;DHT22;16424;50.956;5.320;2023-05-07T09:19:44;25.80;99.90
29453;DHT22;16424;50.956;5.320;2023-05-07T09:22:13;26.00;99.90
29453;DHT22;16424;50.956;5.320;2023-05-07T09:24:39;26.00;99.90
29453;DHT22;16424;50.956;5.320;2023-05-07T09:27:06;25.60;99.90
29453;DHT22;16424;50.956;5.320;2023-05-07T09:29:32;25.90;99.90
29453;DHT22;16424;50.956;5.320;2023-05-07T09:32:08;25.60;99.90
29453;DHT22;16424;50.956;5.320;2023-05-07T09:34:34;25.90;99.90
29453;DHT22;16424;50.956;5.320;2023-05-07T09:37:04;25.70;99.90
29453;DHT22;16424;50.956;5.320;2023-05-07T09:39:43;26.10;99.90
29453;DHT22;16424;50.956;5.320;2023-05-07T09:42:09;25.50;99.90
29453;DHT22;16424;50.956;5.320;2023-05-07T09:44:35;25.10;99.90
29453;DHT22;16424;50.956;5.320;2023-05-07T09:47:04;25.10;99.90
29453;DHT22;16424;50.956;5.320;2023-05-07T09:49:37;25.30;99.90
29453;DHT22;16424;50.956;5.320;2023-05-07T09:52:04;25.50;99.90
29453;DHT22;16424;50.956;5.320;2023-05-07T09:54:36;25.70;99.90
29453;DHT22;16424;50.956;5.320;2023-05-07T09:57:04;25.80;99.90
29453;DHT22;16424;50.956;5.320;2023-05-07T09:59:31;25.30;99.90
29453;DHT22;16424;50.956;5.320;2023-05-07T10:01:59;24.80;99.90
29453;DHT22;16424;50.956;5.320;2023-05-07T10:04:25;25.00;99.90
29453;DHT22;16424;50.956;5.320;2023-05-07T10:06:52;24.90;99.90
29453;DHT22;16424;50.956;5.320;2023-05-07T10:09:19;24.60;99.90
29453;DHT22;16424;50.956;5.320;2023-05-07T10:11:46;24.50;99.90
29453;DHT22;16424;50.956;5.320;2023-05-07T10:14:14;24.10;99.90
29453;DHT22;16424;50.956;5.320;2023-05-07T10:16:40;24.00;99.90
29453;DHT22;16424;50.956;5.320;2023-05-07T10:19:07;23.90;99.90
29453;DHT22;16424;50.956;5.320;2023-05-07T10:21:39;23.20;99.90
29453;DHT22;16424;50.956;5.320;2023-05-07T10:24:10;23.20;99.90
29453;DHT22;16424;50.956;5.320;2023-05-07T10:26:44;23.10;99.90
29453;DHT22;16424;50.956;5.320;2023-05-07T10:32:29;22.90;99.90
29453;DHT22;16424;50.956;5.320;2023-05-07T10:34:57;22.80;99.90
29453;DHT22;16424;50.956;5.320;2023-05-07T10:37:25;22.90;99.90
29453;DHT22;16424;50.956;5.320;2023-05-07T10:39:52;22.70;99.90
29453;DHT22;16424;50.956;5.320;2023-05-07T10:42:17;22.10;99.90
29453;DHT22;16424;50.956;5.320;2023-05-07T10:44:43;22.00;99.90
29453;DHT22;16424;50.956;5.320;2023-05-07T10:47:14;22.00;99.90
29453;DHT22;16424;50.956;5.320;2023-05-07T10:50:19;21.90;99.90
29453;DHT22;16424;50.956;5.320;2023-05-07T10:52:32;21.80;99.90
29453;DHT22;16424;50.956;5.320;2023-05-07T10:57:46;21.70;99.90
29453;DHT22;16424;50.956;5.320;2023-05-07T11:05:29;21.00;99.90
29453;DHT22;16424;50.956;5.320;2023-05-07T11:07:57;21.00;99.90
29453;DHT22;16424;50.956;5.320;2023-05-07T11:10:23;20.90;99.90
29453;DHT22;16424;50.956;5.320;2023-05-07T11:12:52;20.80;99.90
29453;DHT22;16424;50.956;5.320;2023-05-07T11:15:39;21.00;99.90
29453;DHT22;16424;50.956;5.320;2023-05-07T11:18:04;21.00;99.90
29453;DHT22;16424;50.956;5.320;2023-05-07T11:20:50;20.90;99.90
29453;DHT22;16424;50.956;5.320;2023-05-07T11:26:05;20.70;99.90
29453;DHT22;16424;50.956;5.320;2023-05-07T11:28:40;20.60;99.90
29453;DHT22;16424;50.956;5.320;2023-05-07T11:31:06;20.60;99.90
29453;DHT22;16424;50.956;5.320;2023-05-07T11:33:32;20.60;99.90
29453;DHT22;16424;50.956;5.320;2023-05-07T11:35:58;20.50;99.90
29453;DHT22;16424;50.956;5.320;2023-05-07T11:38:25;20.70;99.90
29453;DHT22;16424;50.956;5.320;2023-05-07T11:40:52;20.50;99.90
29453;DHT22;16424;50.956;5.320;2023-05-07T11:43:18;20.70;99.90
29453;DHT22;16424;50.956;5.320;2023-05-07T11:45:47;20.90;99.90
29453;DHT22;16424;50.956;5.320;2023-05-07T11:48:14;21.00;99.90
29453;DHT22;16424;50.956;5.320;2023-05-07T11:50:59;21.00;99.90
29453;DHT22;16424;50.956;5.320;2023-05-07T11:53:26;20.70;99.90
29453;DHT22;16424;50.956;5.320;2023-05-07T11:55:55;20.70;99.90
29453;DHT22;16424;50.956;5.320;2023-05-07T11:58:23;20.80;99.90
29453;DHT22;16424;50.956;5.320;2023-05-07T12:00:53;20.70;99.90
29453;DHT22;16424;50.956;5.320;2023-05-07T12:03:19;20.70;99.90
29453;DHT22;16424;50.956;5.320;2023-05-07T12:05:46;20.70;99.90
29453;DHT22;16424;50.956;5.320;2023-05-07T12:08:15;20.70;99.90
29453;DHT22;16424;50.956;5.320;2023-05-07T12:10:42;20.90;99.90
29453;DHT22;16424;50.956;5.320;2023-05-07T12:13:26;20.90;99.90
29453;DHT22;16424;50.956;5.320;2023-05-07T12:15:52;21.00;99.90
29453;DHT22;16424;50.956;5.320;2023-05-07T12:18:18;20.90;99.90
29453;DHT22;16424;50.956;5.320;2023-05-07T12:20:45;20.90;99.90
29453;DHT22;16424;50.956;5.320;2023-05-07T12:23:11;20.80;99.90
29453;DHT22;16424;50.956;5.320;2023-05-07T12:25:38;20.90;99.90
29453;DHT22;16424;50.956;5.320;2023-05-07T12:28:05;20.90;99.90
29453;DHT22;16424;50.956;5.320;2023-05-07T12:30:38;20.80;99.90
29453;DHT22;16424;50.956;5.320;2023-05-07T12:33:04;20.60;99.90
29453;DHT22;16424;50.956;5.320;2023-05-07T12:35:31;20.90;99.90
29453;DHT22;16424;50.956;5.320;2023-05-07T12:37:58;21.00;99.90
29453;DHT22;16424;50.956;5.320;2023-05-07T12:40:38;20.90;99.90
29453;DHT22;16424;50.956;5.320;2023-05-07T12:43:04;20.80;99.90
29453;DHT22;16424;50.956;5.320;2023-05-07T12:45:30;20.90;99.90
29453;DHT22;16424;50.956;5.320;2023-05-07T12:47:56;20.80;99.90
29453;DHT22;16424;50.956;5.320;2023-05-07T12:50:26;21.00;99.90
29453;DHT22;16424;50.956;5.320;2023-05-07T12:52:56;21.10;99.90
29453;DHT22;16424;50.956;5.320;2023-05-07T12:55:21;21.20;99.90
29453;DHT22;16424;50.956;5.320;2023-05-07T12:57:50;21.40;99.90
29453;DHT22;16424;50.956;5.320;2023-05-07T13:00:17;21.40;99.90
29453;DHT22;16424;50.956;5.320;2023-05-07T13:02:43;21.60;99.90
29453;DHT22;16424;50.956;5.320;2023-05-07T13:05:12;21.40;99.90
29453;DHT22;16424;50.956;5.320;2023-05-07T13:07:38;21.60;99.90
29453;DHT22;16424;50.956;5.320;2023-05-07T13:10:04;21.70;99.90
29453;DHT22;16424;50.956;5.320;2023-05-07T13:12:30;21.70;99.90
29453;DHT22;16424;50.956;5.320;2023-05-07T13:14:55;21.80;99.90
29453;DHT22;16424;50.956;5.320;2023-05-07T13:17:21;21.90;99.90
29453;DHT22;16424;50.956;5.320;2023-05-07T13:19:47;21.80;99.90
29453;DHT22;16424;50.956;5.320;2023-05-07T13:22:12;22.00;99.90
29453;DHT22;16424;50.956;5.320;2023-05-07T13:24:38;22.00;99.90
29453;DHT22;16424;50.956;5.320;2023-05-07T13:27:07;21.90;99.90
29453;DHT22;16424;50.956;5.320;2023-05-07T13:29:32;21.60;99.90
29453;DHT22;16424;50.956;5.320;2023-05-07T13:31:58;21.40;99.90
29453;DHT22;16424;50.956;5.320;2023-05-07T13:34:24;20.90;99.90
29453;DHT22;16424;50.956;5.320;2023-05-07T13:36:50;20.90;99.90
29453;DHT22;16424;50.956;5.320;2023-05-07T13:39:16;20.90;99.90
29453;DHT22;16424;50.956;5.320;2023-05-07T13:41:42;21.00;99.90
29453;DHT22;16424;50.956;5.320;2023-05-07T13:44:07;20.80;99.90
29453;DHT22;16424;50.956;5.320;2023-05-07T13:46:33;20.90;99.90
29453;DHT22;16424;50.956;5.320;2023-05-07T13:48:58;21.20;99.90
29453;DHT22;16424;50.956;5.320;2023-05-07T13:51:24;21.40;99.90
29453;DHT22;16424;50.956;5.320;2023-05-07T13:53:51;21.60;99.90
29453;DHT22;16424;50.956;5.320;2023-05-07T13:56:17;21.60;99.90
29453;DHT22;16424;50.956;5.320;2023-05-07T13:58:43;21.50;99.90
29453;DHT22;16424;50.956;5.320;2023-05-07T14:01:09;21.30;99.90
29453;DHT22;16424;50.956;5.320;2023-05-07T14:03:34;21.30;99.90
29453;DHT22;16424;50.956;5.320;2023-05-07T14:06:03;21.30;99.90
29453;DHT22;16424;50.956;5.320;2023-05-07T14:08:28;21.00;99.90
29453;DHT22;16424;50.956;5.320;2023-05-07T14:10:55;21.10;99.90
29453;DHT22;16424;50.956;5.320;2023-05-07T14:13:20;21.10;99.90
29453;DHT22;16424;50.956;5.320;2023-05-07T14:15:46;21.20;99.90
29453;DHT22;16424;50.956;5.320;2023-05-07T14:18:14;21.30;99.90
29453;DHT22;16424;50.956;5.320;2023-05-07T14:20:40;21.30;99.90
29453;DHT22;16424;50.956;5.320;2023-05-07T14:23:05;21.10;99.90
29453;DHT22;16424;50.956;5.320;2023-05-07T14:25:32;20.90;99.90
29453;DHT22;16424;50.956;5.320;2023-05-07T14:27:57;21.00;99.90
29453;DHT22;16424;50.956;5.320;2023-05-07T14:30:23;21.00;99.90
29453;DHT22;16424;50.956;5.320;2023-05-07T14:32:50;20.90;99.90
29453;DHT22;16424;50.956;5.320;2023-05-07T14:35:16;20.90;99.90
29453;DHT22;16424;50.956;5.320;2023-05-07T14:37:42;20.90;99.90
29453;DHT22;16424;50.956;5.320;2023-05-07T14:40:08;21.10;99.90
29453;DHT22;16424;50.956;5.320;2023-05-07T14:42:34;21.20;99.90
29453;DHT22;16424;50.956;5.320;2023-05-07T14:45:00;21.30;99.90
29453;DHT22;16424;50.956;5.320;2023-05-07T14:47:25;21.20;99.90
29453;DHT22;16424;50.956;5.320;2023-05-07T14:49:51;21.30;99.90
29453;DHT22;16424;50.956;5.320;2023-05-07T14:52:18;21.10;99.90
29453;DHT22;16424;50.956;5.320;2023-05-07T14:54:44;21.10;99.90
29453;DHT22;16424;50.956;5.320;2023-05-07T14:57:10;21.10;99.90
29453;DHT22;16424;50.956;5.320;2023-05-07T14:59:38;21.20;99.90
29453;DHT22;16424;50.956;5.320;2023-05-07T15:02:05;21.30;99.90
29453;DHT22;16424;50.956;5.320;2023-05-07T15:04:33;20.90;99.90
29453;DHT22;16424;50.956;5.320;2023-05-07T15:06:59;21.10;99.90
29453;DHT22;16424;50.956;5.320;2023-05-07T15:09:25;20.90;99.90
29453;DHT22;16424;50.956;5.320;2023-05-07T15:11:51;20.60;99.90
29453;DHT22;16424;50.956;5.320;2023-05-07T15:14:17;20.60;99.90
29453;DHT22;16424;50.956;5.320;2023-05-07T15:16:42;20.40;99.90
29453;DHT22;16424;50.956;5.320;2023-05-07T15:19:08;20.40;99.90
29453;DHT22;16424;50.956;5.320;2023-05-07T15:21:33;20.20;99.90
29453;DHT22;16424;50.956;5.320;2023-05-07T15:24:01;20.40;99.90
29453;DHT22;16424;50.956;5.320;2023-05-07T15:26:27;20.70;99.90
29453;DHT22;16424;50.956;5.320;2023-05-07T15:28:52;20.90;99.90
29453;DHT22;16424;50.956;5.320;2023-05-07T15:31:21;21.00;99.90
29453;DHT22;16424;50.956;5.320;2023-05-07T15:33:46;20.90;99.90
29453;DHT22;16424;50.956;5.320;2023-05-07T15:36:12;21.00;99.90
29453;DHT22;16424;50.956;5.320;2023-05-07T15:38:38;20.80;99.90
29453;DHT22;16424;50.956;5.320;2023-05-07T15:41:04;20.90;99.90